sensor_id;sensor_type;location;lat;lon;timestamp;P1;durP1;ratioP1;P2;durP2;ratioP2
34212;SDS011;20477;51.390;8.102;2023-09-12T00:02:15;21.05;;;11.52;;
34212;SDS011;20477;51.390;8.102;2023-09-12T00:04:43;15.07;;;11.00;;
34212;SDS011;20477;51.390;8.102;2023-09-12T00:07:10;20.25;;;11.35;;
34212;SDS011;20477;51.390;8.102;2023-09-12T00:09:37;25.73;;;12.18;;
34212;SDS011;20477;51.390;8.102;2023-09-12T00:12:06;27.98;;;12.48;;
34212;SDS011;20477;51.390;8.102;2023-09-12T00:14:33;19.65;;;11.93;;
34212;SDS011;20477;51.390;8.102;2023-09-12T00:17:01;21.08;;;12.60;;
34212;SDS011;20477;51.390;8.102;2023-09-12T00:19:28;24.33;;;12.40;;
34212;SDS011;20477;51.390;8.102;2023-09-12T00:21:55;20.58;;;12.57;;
34212;SDS011;20477;51.390;8.102;2023-09-12T00:24:22;17.90;;;12.95;;
34212;SDS011;20477;51.390;8.102;2023-09-12T00:26:50;19.75;;;12.77;;
34212;SDS011;20477;51.390;8.102;2023-09-12T00:29:18;26.55;;;13.25;;
34212;SDS011;20477;51.390;8.102;2023-09-12T00:31:45;24.05;;;13.27;;
34212;SDS011;20477;51.390;8.102;2023-09-12T00:34:15;26.23;;;12.95;;
34212;SDS011;20477;51.390;8.102;2023-09-12T00:36:42;21.15;;;12.75;;
34212;SDS011;20477;51.390;8.102;2023-09-12T00:39:10;21.05;;;12.70;;
34212;SDS011;20477;51.390;8.102;2023-09-12T00:41:37;21.73;;;13.05;;
34212;SDS011;20477;51.390;8.102;2023-09-12T00:44:04;24.17;;;13.13;;
34212;SDS011;20477;51.390;8.102;2023-09-12T00:46:33;18.08;;;12.80;;
34212;SDS011;20477;51.390;8.102;2023-09-12T00:49:01;20.85;;;12.48;;
34212;SDS011;20477;51.390;8.102;2023-09-12T00:51:29;22.10;;;13.80;;
34212;SDS011;20477;51.390;8.102;2023-09-12T00:53:58;26.55;;;14.48;;
34212;SDS011;20477;51.390;8.102;2023-09-12T00:56:25;27.25;;;13.82;;
34212;SDS011;20477;51.390;8.102;2023-09-12T00:58:53;23.10;;;12.95;;
34212;SDS011;20477;51.390;8.102;2023-09-12T01:01:20;25.38;;;14.70;;
34212;SDS011;20477;51.390;8.102;2023-09-12T01:03:49;21.95;;;13.00;;
34212;SDS011;20477;51.390;8.102;2023-09-12T01:06:16;24.98;;;13.68;;
34212;SDS011;20477;51.390;8.102;2023-09-12T01:08:46;27.60;;;14.23;;
34212;SDS011;20477;51.390;8.102;2023-09-12T01:11:13;23.23;;;14.25;;
34212;SDS011;20477;51.390;8.102;2023-09-12T01:13:41;21.25;;;12.80;;
34212;SDS011;20477;51.390;8.102;2023-09-12T01:16:08;16.17;;;13.48;;
34212;SDS011;20477;51.390;8.102;2023-09-12T01:18:35;19.52;;;13.13;;
34212;SDS011;20477;51.390;8.102;2023-09-12T01:21:14;23.52;;;13.45;;
34212;SDS011;20477;51.390;8.102;2023-09-12T01:27:36;21.98;;;14.27;;
34212;SDS011;20477;51.390;8.102;2023-09-12T01:30:05;29.30;;;15.53;;
34212;SDS011;20477;51.390;8.102;2023-09-12T01:32:35;25.30;;;13.50;;
34212;SDS011;20477;51.390;8.102;2023-09-12T01:35:02;32.20;;;15.02;;
34212;SDS011;20477;51.390;8.102;2023-09-12T01:37:30;20.70;;;13.25;;
34212;SDS011;20477;51.390;8.102;2023-09-12T01:39:57;28.15;;;14.10;;
34212;SDS011;20477;51.390;8.102;2023-09-12T01:42:26;25.75;;;13.98;;
34212;SDS011;20477;51.390;8.102;2023-09-12T01:44:59;23.40;;;14.23;;
34212;SDS011;20477;51.390;8.102;2023-09-12T01:47:28;23.05;;;13.63;;
34212;SDS011;20477;51.390;8.102;2023-09-12T01:49:56;23.35;;;14.25;;
34212;SDS011;20477;51.390;8.102;2023-09-12T01:52:24;21.63;;;15.52;;
34212;SDS011;20477;51.390;8.102;2023-09-12T01:54:52;23.27;;;14.38;;
34212;SDS011;20477;51.390;8.102;2023-09-12T01:57:19;21.92;;;15.65;;
34212;SDS011;20477;51.390;8.102;2023-09-12T01:59:47;31.20;;;15.73;;
34212;SDS011;20477;51.390;8.102;2023-09-12T02:02:16;26.73;;;16.63;;
34212;SDS011;20477;51.390;8.102;2023-09-12T02:04:45;28.88;;;17.75;;
34212;SDS011;20477;51.390;8.102;2023-09-12T02:07:19;20.55;;;16.70;;
34212;SDS011;20477;51.390;8.102;2023-09-12T02:09:46;26.13;;;17.13;;
34212;SDS011;20477;51.390;8.102;2023-09-12T02:12:13;25.50;;;17.33;;
34212;SDS011;20477;51.390;8.102;2023-09-12T02:14:40;34.80;;;18.85;;
34212;SDS011;20477;51.390;8.102;2023-09-12T02:17:07;30.65;;;18.83;;
34212;SDS011;20477;51.390;8.102;2023-09-12T02:19:36;27.23;;;18.48;;
34212;SDS011;20477;51.390;8.102;2023-09-12T02:22:03;25.50;;;17.58;;
34212;SDS011;20477;51.390;8.102;2023-09-12T02:24:30;22.27;;;16.75;;
34212;SDS011;20477;51.390;8.102;2023-09-12T02:27:01;20.83;;;16.23;;
34212;SDS011;20477;51.390;8.102;2023-09-12T02:29:28;26.60;;;16.58;;
34212;SDS011;20477;51.390;8.102;2023-09-12T02:31:55;21.67;;;15.68;;
34212;SDS011;20477;51.390;8.102;2023-09-12T02:34:22;20.70;;;14.65;;
34212;SDS011;20477;51.390;8.102;2023-09-12T02:36:51;18.42;;;14.43;;
34212;SDS011;20477;51.390;8.102;2023-09-12T02:39:18;14.10;;;12.60;;
34212;SDS011;20477;51.390;8.102;2023-09-12T02:41:45;17.38;;;12.98;;
34212;SDS011;20477;51.390;8.102;2023-09-12T02:44:12;19.83;;;13.52;;
34212;SDS011;20477;51.390;8.102;2023-09-12T02:46:39;18.50;;;12.63;;
34212;SDS011;20477;51.390;8.102;2023-09-12T02:49:07;19.77;;;13.65;;
34212;SDS011;20477;51.390;8.102;2023-09-12T02:51:36;19.00;;;13.32;;
34212;SDS011;20477;51.390;8.102;2023-09-12T02:54:06;18.08;;;12.98;;
34212;SDS011;20477;51.390;8.102;2023-09-12T02:56:33;20.50;;;13.10;;
34212;SDS011;20477;51.390;8.102;2023-09-12T02:59:01;20.63;;;13.27;;
34212;SDS011;20477;51.390;8.102;2023-09-12T03:01:28;13.93;;;12.10;;
34212;SDS011;20477;51.390;8.102;2023-09-12T03:03:55;20.73;;;12.27;;
34212;SDS011;20477;51.390;8.102;2023-09-12T03:06:24;17.65;;;13.05;;
34212;SDS011;20477;51.390;8.102;2023-09-12T03:08:51;16.90;;;13.20;;
34212;SDS011;20477;51.390;8.102;2023-09-12T03:11:20;23.17;;;14.70;;
34212;SDS011;20477;51.390;8.102;2023-09-12T03:13:47;24.23;;;12.60;;
34212;SDS011;20477;51.390;8.102;2023-09-12T03:16:14;16.48;;;13.50;;
34212;SDS011;20477;51.390;8.102;2023-09-12T03:18:41;16.55;;;12.23;;
34212;SDS011;20477;51.390;8.102;2023-09-12T03:21:09;21.70;;;12.52;;
34212;SDS011;20477;51.390;8.102;2023-09-12T03:23:36;19.08;;;12.50;;
34212;SDS011;20477;51.390;8.102;2023-09-12T03:26:04;15.40;;;11.93;;
34212;SDS011;20477;51.390;8.102;2023-09-12T03:28:33;15.30;;;11.95;;
34212;SDS011;20477;51.390;8.102;2023-09-12T03:31:03;25.42;;;14.05;;
34212;SDS011;20477;51.390;8.102;2023-09-12T03:33:34;22.55;;;13.77;;
34212;SDS011;20477;51.390;8.102;2023-09-12T03:36:02;17.95;;;12.18;;
34212;SDS011;20477;51.390;8.102;2023-09-12T03:38:30;18.73;;;13.35;;
34212;SDS011;20477;51.390;8.102;2023-09-12T03:40:57;18.85;;;12.68;;
34212;SDS011;20477;51.390;8.102;2023-09-12T03:43:24;19.00;;;13.18;;
34212;SDS011;20477;51.390;8.102;2023-09-12T03:45:56;18.65;;;12.95;;
34212;SDS011;20477;51.390;8.102;2023-09-12T03:48:23;22.42;;;12.15;;
34212;SDS011;20477;51.390;8.102;2023-09-12T03:50:51;15.32;;;11.93;;
34212;SDS011;20477;51.390;8.102;2023-09-12T03:53:18;17.05;;;11.77;;
34212;SDS011;20477;51.390;8.102;2023-09-12T03:55:45;15.20;;;10.40;;
34212;SDS011;20477;51.390;8.102;2023-09-12T03:58:12;16.77;;;10.77;;
34212;SDS011;20477;51.390;8.102;2023-09-12T04:00:39;18.38;;;11.60;;
34212;SDS011;20477;51.390;8.102;2023-09-12T04:03:08;17.50;;;11.50;;
34212;SDS011;20477;51.390;8.102;2023-09-12T04:05:35;13.20;;;10.80;;
34212;SDS011;20477;51.390;8.102;2023-09-12T04:08:03;11.63;;;9.50;;
34212;SDS011;20477;51.390;8.102;2023-09-12T04:10:30;13.90;;;11.10;;
34212;SDS011;20477;51.390;8.102;2023-09-12T04:12:58;16.33;;;10.98;;
34212;SDS011;20477;51.390;8.102;2023-09-12T04:15:25;19.85;;;11.00;;
34212;SDS011;20477;51.390;8.102;2023-09-12T04:17:55;15.13;;;11.80;;
34212;SDS011;20477;51.390;8.102;2023-09-12T04:20:24;17.55;;;11.10;;
34212;SDS011;20477;51.390;8.102;2023-09-12T04:22:51;16.52;;;11.43;;
34212;SDS011;20477;51.390;8.102;2023-09-12T04:25:18;16.42;;;10.98;;
34212;SDS011;20477;51.390;8.102;2023-09-12T04:27:45;16.05;;;11.07;;
34212;SDS011;20477;51.390;8.102;2023-09-12T04:30:13;14.57;;;10.75;;
34212;SDS011;20477;51.390;8.102;2023-09-12T04:32:40;20.98;;;11.10;;
34212;SDS011;20477;51.390;8.102;2023-09-12T04:35:08;24.60;;;12.27;;
34212;SDS011;20477;51.390;8.102;2023-09-12T04:37:36;15.30;;;13.35;;
34212;SDS011;20477;51.390;8.102;2023-09-12T04:40:04;31.02;;;14.25;;
34212;SDS011;20477;51.390;8.102;2023-09-12T04:42:33;20.60;;;14.80;;
34212;SDS011;20477;51.390;8.102;2023-09-12T04:45:01;23.77;;;15.05;;
34212;SDS011;20477;51.390;8.102;2023-09-12T04:47:28;19.52;;;13.45;;
34212;SDS011;20477;51.390;8.102;2023-09-12T04:49:55;22.20;;;13.90;;
34212;SDS011;20477;51.390;8.102;2023-09-12T04:52:23;21.38;;;13.95;;
34212;SDS011;20477;51.390;8.102;2023-09-12T04:54:52;17.50;;;13.18;;
34212;SDS011;20477;51.390;8.102;2023-09-12T04:57:19;17.50;;;13.52;;
34212;SDS011;20477;51.390;8.102;2023-09-12T04:59:46;17.08;;;13.65;;
34212;SDS011;20477;51.390;8.102;2023-09-12T05:02:13;21.52;;;15.63;;
34212;SDS011;20477;51.390;8.102;2023-09-12T05:04:40;23.17;;;14.07;;
34212;SDS011;20477;51.390;8.102;2023-09-12T05:07:07;21.88;;;15.45;;
34212;SDS011;20477;51.390;8.102;2023-09-12T05:09:35;22.20;;;17.13;;
34212;SDS011;20477;51.390;8.102;2023-09-12T05:12:04;23.15;;;17.85;;
34212;SDS011;20477;51.390;8.102;2023-09-12T05:14:31;28.33;;;17.80;;
34212;SDS011;20477;51.390;8.102;2023-09-12T05:16:59;23.40;;;17.42;;
34212;SDS011;20477;51.390;8.102;2023-09-12T05:19:26;23.88;;;17.70;;
34212;SDS011;20477;51.390;8.102;2023-09-12T05:21:53;22.50;;;18.52;;
34212;SDS011;20477;51.390;8.102;2023-09-12T05:24:20;23.95;;;18.20;;
34212;SDS011;20477;51.390;8.102;2023-09-12T05:26:47;24.27;;;19.30;;
34212;SDS011;20477;51.390;8.102;2023-09-12T05:29:16;21.63;;;18.42;;
34212;SDS011;20477;51.390;8.102;2023-09-12T05:31:43;27.33;;;18.48;;
34212;SDS011;20477;51.390;8.102;2023-09-12T05:34:10;20.88;;;18.13;;
34212;SDS011;20477;51.390;8.102;2023-09-12T05:36:38;28.10;;;18.10;;
34212;SDS011;20477;51.390;8.102;2023-09-12T05:39:05;21.10;;;18.77;;
34212;SDS011;20477;51.390;8.102;2023-09-12T05:41:33;26.70;;;19.27;;
34212;SDS011;20477;51.390;8.102;2023-09-12T05:44:00;23.85;;;19.40;;
34212;SDS011;20477;51.390;8.102;2023-09-12T05:46:28;22.17;;;18.83;;
34212;SDS011;20477;51.390;8.102;2023-09-12T05:48:56;24.90;;;17.35;;
34212;SDS011;20477;51.390;8.102;2023-09-12T05:51:23;18.90;;;16.52;;
34212;SDS011;20477;51.390;8.102;2023-09-12T05:53:50;19.48;;;17.00;;
34212;SDS011;20477;51.390;8.102;2023-09-12T05:56:17;31.10;;;15.82;;
34212;SDS011;20477;51.390;8.102;2023-09-12T05:58:45;18.30;;;15.77;;
34212;SDS011;20477;51.390;8.102;2023-09-12T06:01:12;19.70;;;16.20;;
34212;SDS011;20477;51.390;8.102;2023-09-12T06:03:40;19.00;;;15.40;;
34212;SDS011;20477;51.390;8.102;2023-09-12T06:06:08;25.23;;;15.15;;
34212;SDS011;20477;51.390;8.102;2023-09-12T06:08:35;22.48;;;16.10;;
34212;SDS011;20477;51.390;8.102;2023-09-12T06:11:03;20.88;;;14.90;;
34212;SDS011;20477;51.390;8.102;2023-09-12T06:13:30;19.90;;;14.77;;
34212;SDS011;20477;51.390;8.102;2023-09-12T06:15:57;20.27;;;14.48;;
34212;SDS011;20477;51.390;8.102;2023-09-12T06:18:25;19.38;;;14.93;;
34212;SDS011;20477;51.390;8.102;2023-09-12T06:20:54;19.42;;;13.27;;
34212;SDS011;20477;51.390;8.102;2023-09-12T06:23:21;21.15;;;13.25;;
34212;SDS011;20477;51.390;8.102;2023-09-12T06:25:48;14.98;;;12.93;;
34212;SDS011;20477;51.390;8.102;2023-09-12T06:28:24;16.90;;;12.68;;
34212;SDS011;20477;51.390;8.102;2023-09-12T06:30:52;14.90;;;12.07;;
34212;SDS011;20477;51.390;8.102;2023-09-12T06:33:19;22.88;;;11.55;;
34212;SDS011;20477;51.390;8.102;2023-09-12T06:35:47;15.13;;;10.95;;
34212;SDS011;20477;51.390;8.102;2023-09-12T06:38:16;16.25;;;11.13;;
34212;SDS011;20477;51.390;8.102;2023-09-12T06:40:43;16.00;;;10.32;;
34212;SDS011;20477;51.390;8.102;2023-09-12T06:43:11;18.70;;;9.85;;
34212;SDS011;20477;51.390;8.102;2023-09-12T06:45:38;19.15;;;10.48;;
34212;SDS011;20477;51.390;8.102;2023-09-12T06:48:06;16.55;;;9.55;;
34212;SDS011;20477;51.390;8.102;2023-09-12T06:50:34;23.17;;;10.80;;
34212;SDS011;20477;51.390;8.102;2023-09-12T06:53:02;17.67;;;11.00;;
34212;SDS011;20477;51.390;8.102;2023-09-12T06:55:31;17.60;;;10.70;;
34212;SDS011;20477;51.390;8.102;2023-09-12T06:57:58;17.23;;;10.98;;
34212;SDS011;20477;51.390;8.102;2023-09-12T07:00:25;16.83;;;10.70;;
34212;SDS011;20477;51.390;8.102;2023-09-12T07:02:53;12.85;;;10.75;;
34212;SDS011;20477;51.390;8.102;2023-09-12T07:05:20;14.88;;;9.68;;
34212;SDS011;20477;51.390;8.102;2023-09-12T07:07:47;16.90;;;9.80;;
34212;SDS011;20477;51.390;8.102;2023-09-12T07:10:15;18.40;;;11.40;;
34212;SDS011;20477;51.390;8.102;2023-09-12T07:12:52;17.95;;;12.30;;
34212;SDS011;20477;51.390;8.102;2023-09-12T07:15:19;16.48;;;12.93;;
34212;SDS011;20477;51.390;8.102;2023-09-12T07:17:47;18.27;;;12.77;;
34212;SDS011;20477;51.390;8.102;2023-09-12T07:20:14;19.27;;;12.55;;
34212;SDS011;20477;51.390;8.102;2023-09-12T07:22:41;18.27;;;12.50;;
34212;SDS011;20477;51.390;8.102;2023-09-12T07:25:09;20.80;;;13.93;;
34212;SDS011;20477;51.390;8.102;2023-09-12T07:27:36;18.83;;;11.65;;
34212;SDS011;20477;51.390;8.102;2023-09-12T07:30:06;16.75;;;12.65;;
34212;SDS011;20477;51.390;8.102;2023-09-12T07:32:34;21.27;;;14.10;;
34212;SDS011;20477;51.390;8.102;2023-09-12T07:35:02;22.05;;;10.98;;
34212;SDS011;20477;51.390;8.102;2023-09-12T07:37:30;14.25;;;10.55;;
34212;SDS011;20477;51.390;8.102;2023-09-12T07:39:57;14.00;;;10.15;;
34212;SDS011;20477;51.390;8.102;2023-09-12T07:42:24;13.38;;;10.52;;
34212;SDS011;20477;51.390;8.102;2023-09-12T07:44:51;11.43;;;9.05;;
34212;SDS011;20477;51.390;8.102;2023-09-12T07:47:20;20.70;;;9.10;;
34212;SDS011;20477;51.390;8.102;2023-09-12T07:49:52;15.95;;;9.35;;
34212;SDS011;20477;51.390;8.102;2023-09-12T07:52:19;16.57;;;10.03;;
34212;SDS011;20477;51.390;8.102;2023-09-12T07:54:47;15.52;;;11.40;;
34212;SDS011;20477;51.390;8.102;2023-09-12T07:57:15;18.50;;;13.32;;
34212;SDS011;20477;51.390;8.102;2023-09-12T07:59:42;19.13;;;14.07;;
34212;SDS011;20477;51.390;8.102;2023-09-12T08:02:09;18.48;;;13.55;;
34212;SDS011;20477;51.390;8.102;2023-09-12T08:04:38;23.23;;;14.90;;
34212;SDS011;20477;51.390;8.102;2023-09-12T08:07:05;25.92;;;16.17;;
34212;SDS011;20477;51.390;8.102;2023-09-12T08:09:47;21.98;;;16.92;;
34212;SDS011;20477;51.390;8.102;2023-09-12T08:12:15;23.30;;;16.85;;
34212;SDS011;20477;51.390;8.102;2023-09-12T08:14:43;26.17;;;16.98;;
34212;SDS011;20477;51.390;8.102;2023-09-12T08:17:10;23.92;;;17.63;;
34212;SDS011;20477;51.390;8.102;2023-09-12T08:19:38;21.55;;;17.13;;
34212;SDS011;20477;51.390;8.102;2023-09-12T08:22:06;21.75;;;15.93;;
34212;SDS011;20477;51.390;8.102;2023-09-12T08:24:34;21.05;;;16.90;;
34212;SDS011;20477;51.390;8.102;2023-09-12T08:27:02;22.05;;;15.60;;
34212;SDS011;20477;51.390;8.102;2023-09-12T08:29:30;22.02;;;15.80;;
34212;SDS011;20477;51.390;8.102;2023-09-12T08:31:58;20.13;;;15.30;;
34212;SDS011;20477;51.390;8.102;2023-09-12T08:34:25;23.70;;;15.02;;
34212;SDS011;20477;51.390;8.102;2023-09-12T08:36:54;20.88;;;14.77;;
34212;SDS011;20477;51.390;8.102;2023-09-12T08:39:23;20.15;;;13.65;;
34212;SDS011;20477;51.390;8.102;2023-09-12T08:41:51;17.48;;;12.60;;
34212;SDS011;20477;51.390;8.102;2023-09-12T08:44:18;22.77;;;13.73;;
34212;SDS011;20477;51.390;8.102;2023-09-12T08:46:47;18.92;;;12.88;;
34212;SDS011;20477;51.390;8.102;2023-09-12T08:49:14;17.88;;;12.70;;
34212;SDS011;20477;51.390;8.102;2023-09-12T08:51:42;17.38;;;10.75;;
34212;SDS011;20477;51.390;8.102;2023-09-12T08:54:11;16.50;;;9.35;;
34212;SDS011;20477;51.390;8.102;2023-09-12T08:56:39;13.65;;;9.02;;
34212;SDS011;20477;51.390;8.102;2023-09-12T08:59:07;14.45;;;8.93;;
34212;SDS011;20477;51.390;8.102;2023-09-12T09:01:35;14.50;;;9.02;;
34212;SDS011;20477;51.390;8.102;2023-09-12T09:04:03;9.60;;;8.38;;
34212;SDS011;20477;51.390;8.102;2023-09-12T09:06:31;13.07;;;8.13;;
34212;SDS011;20477;51.390;8.102;2023-09-12T09:08:58;14.50;;;7.93;;
34212;SDS011;20477;51.390;8.102;2023-09-12T09:11:28;13.85;;;8.40;;
34212;SDS011;20477;51.390;8.102;2023-09-12T09:13:55;13.35;;;7.78;;
34212;SDS011;20477;51.390;8.102;2023-09-12T09:16:22;12.38;;;8.38;;
34212;SDS011;20477;51.390;8.102;2023-09-12T09:18:50;13.10;;;7.20;;
34212;SDS011;20477;51.390;8.102;2023-09-12T09:21:19;14.32;;;8.40;;
34212;SDS011;20477;51.390;8.102;2023-09-12T09:23:48;9.30;;;7.30;;
34212;SDS011;20477;51.390;8.102;2023-09-12T09:26:15;13.15;;;7.72;;
34212;SDS011;20477;51.390;8.102;2023-09-12T09:28:44;15.02;;;7.75;;
34212;SDS011;20477;51.390;8.102;2023-09-12T09:31:12;9.30;;;6.68;;
34212;SDS011;20477;51.390;8.102;2023-09-12T09:33:40;14.10;;;8.13;;
34212;SDS011;20477;51.390;8.102;2023-09-12T09:36:07;15.98;;;6.93;;
34212;SDS011;20477;51.390;8.102;2023-09-12T09:38:35;10.13;;;7.35;;
34212;SDS011;20477;51.390;8.102;2023-09-12T09:41:04;8.98;;;6.88;;
34212;SDS011;20477;51.390;8.102;2023-09-12T09:43:32;11.80;;;6.47;;
34212;SDS011;20477;51.390;8.102;2023-09-12T09:46:01;11.77;;;6.32;;
34212;SDS011;20477;51.390;8.102;2023-09-12T09:48:29;7.63;;;6.65;;
34212;SDS011;20477;51.390;8.102;2023-09-12T09:50:59;11.25;;;6.22;;
34212;SDS011;20477;51.390;8.102;2023-09-12T09:53:27;10.88;;;6.25;;
34212;SDS011;20477;51.390;8.102;2023-09-12T09:56:08;11.73;;;6.38;;
34212;SDS011;20477;51.390;8.102;2023-09-12T09:58:36;10.40;;;6.30;;
34212;SDS011;20477;51.390;8.102;2023-09-12T10:01:05;10.82;;;5.72;;
34212;SDS011;20477;51.390;8.102;2023-09-12T10:03:33;8.55;;;6.20;;
34212;SDS011;20477;51.390;8.102;2023-09-12T10:06:03;7.55;;;5.80;;
34212;SDS011;20477;51.390;8.102;2023-09-12T10:08:31;10.20;;;6.00;;
34212;SDS011;20477;51.390;8.102;2023-09-12T10:10:59;12.90;;;5.78;;
34212;SDS011;20477;51.390;8.102;2023-09-12T10:13:26;9.40;;;6.05;;
34212;SDS011;20477;51.390;8.102;2023-09-12T10:15:54;8.63;;;5.50;;
34212;SDS011;20477;51.390;8.102;2023-09-12T10:18:23;6.40;;;4.90;;
34212;SDS011;20477;51.390;8.102;2023-09-12T10:21:05;6.63;;;3.72;;
34212;SDS011;20477;51.390;8.102;2023-09-12T10:23:38;8.15;;;3.72;;
34212;SDS011;20477;51.390;8.102;2023-09-12T10:26:10;5.10;;;2.70;;
34212;SDS011;20477;51.390;8.102;2023-09-12T10:28:40;3.58;;;2.80;;
34212;SDS011;20477;51.390;8.102;2023-09-12T10:31:08;4.25;;;2.80;;
34212;SDS011;20477;51.390;8.102;2023-09-12T10:33:40;4.22;;;3.15;;
34212;SDS011;20477;51.390;8.102;2023-09-12T10:36:09;3.28;;;2.53;;
34212;SDS011;20477;51.390;8.102;2023-09-12T10:38:40;8.38;;;2.83;;
34212;SDS011;20477;51.390;8.102;2023-09-12T10:41:09;2.80;;;2.30;;
34212;SDS011;20477;51.390;8.102;2023-09-12T10:43:38;4.22;;;2.30;;
34212;SDS011;20477;51.390;8.102;2023-09-12T10:46:07;3.33;;;2.20;;
34212;SDS011;20477;51.390;8.102;2023-09-12T10:48:35;6.53;;;2.67;;
34212;SDS011;20477;51.390;8.102;2023-09-12T10:51:04;5.78;;;2.30;;
34212;SDS011;20477;51.390;8.102;2023-09-12T10:53:31;5.70;;;2.03;;
34212;SDS011;20477;51.390;8.102;2023-09-12T10:55:59;7.97;;;2.97;;
34212;SDS011;20477;51.390;8.102;2023-09-12T10:58:28;3.35;;;2.30;;
34212;SDS011;20477;51.390;8.102;2023-09-12T11:03:49;3.10;;;2.67;;
34212;SDS011;20477;51.390;8.102;2023-09-12T11:06:22;4.97;;;2.80;;
34212;SDS011;20477;51.390;8.102;2023-09-12T11:11:44;3.67;;;2.22;;
34212;SDS011;20477;51.390;8.102;2023-09-12T11:14:12;5.40;;;2.53;;
34212;SDS011;20477;51.390;8.102;2023-09-12T11:16:40;2.53;;;2.33;;
34212;SDS011;20477;51.390;8.102;2023-09-12T11:19:42;7.63;;;3.00;;
34212;SDS011;20477;51.390;8.102;2023-09-12T11:22:21;4.78;;;2.53;;
34212;SDS011;20477;51.390;8.102;2023-09-12T11:24:50;4.15;;;3.00;;
34212;SDS011;20477;51.390;8.102;2023-09-12T11:27:18;4.57;;;2.70;;
34212;SDS011;20477;51.390;8.102;2023-09-12T11:29:46;6.05;;;2.58;;
34212;SDS011;20477;51.390;8.102;2023-09-12T11:32:24;6.13;;;2.88;;
34212;SDS011;20477;51.390;8.102;2023-09-12T11:34:54;5.65;;;3.13;;
34212;SDS011;20477;51.390;8.102;2023-09-12T11:37:23;4.13;;;2.83;;
34212;SDS011;20477;51.390;8.102;2023-09-12T11:39:52;3.92;;;2.95;;
34212;SDS011;20477;51.390;8.102;2023-09-12T11:42:20;13.95;;;3.40;;
34212;SDS011;20477;51.390;8.102;2023-09-12T11:44:48;3.42;;;3.13;;
34212;SDS011;20477;51.390;8.102;2023-09-12T11:47:16;13.40;;;3.10;;
34212;SDS011;20477;51.390;8.102;2023-09-12T11:49:43;3.38;;;2.80;;
34212;SDS011;20477;51.390;8.102;2023-09-12T11:52:10;7.88;;;3.10;;
34212;SDS011;20477;51.390;8.102;2023-09-12T11:54:40;3.97;;;2.90;;
34212;SDS011;20477;51.390;8.102;2023-09-12T11:57:08;5.85;;;3.20;;
34212;SDS011;20477;51.390;8.102;2023-09-12T11:59:37;3.70;;;2.72;;
34212;SDS011;20477;51.390;8.102;2023-09-12T12:02:05;3.63;;;3.15;;
34212;SDS011;20477;51.390;8.102;2023-09-12T12:04:33;8.57;;;3.22;;
34212;SDS011;20477;51.390;8.102;2023-09-12T12:07:01;8.23;;;3.33;;
34212;SDS011;20477;51.390;8.102;2023-09-12T12:09:30;10.48;;;3.15;;
34212;SDS011;20477;51.390;8.102;2023-09-12T12:12:04;4.95;;;2.92;;
34212;SDS011;20477;51.390;8.102;2023-09-12T12:14:36;5.93;;;3.05;;
34212;SDS011;20477;51.390;8.102;2023-09-12T12:17:05;8.77;;;3.47;;
34212;SDS011;20477;51.390;8.102;2023-09-12T12:19:33;4.05;;;3.33;;
34212;SDS011;20477;51.390;8.102;2023-09-12T12:22:01;5.75;;;2.97;;
34212;SDS011;20477;51.390;8.102;2023-09-12T12:24:35;4.18;;;2.70;;
34212;SDS011;20477;51.390;8.102;2023-09-12T12:27:05;5.95;;;2.60;;
34212;SDS011;20477;51.390;8.102;2023-09-12T12:29:33;4.32;;;2.47;;
34212;SDS011;20477;51.390;8.102;2023-09-12T12:32:01;6.60;;;2.80;;
34212;SDS011;20477;51.390;8.102;2023-09-12T12:34:28;4.05;;;3.20;;
34212;SDS011;20477;51.390;8.102;2023-09-12T12:37:16;5.72;;;2.70;;
34212;SDS011;20477;51.390;8.102;2023-09-12T12:39:43;6.03;;;2.75;;
34212;SDS011;20477;51.390;8.102;2023-09-12T12:42:12;7.13;;;2.97;;
34212;SDS011;20477;51.390;8.102;2023-09-12T12:44:39;4.40;;;2.75;;
34212;SDS011;20477;51.390;8.102;2023-09-12T12:47:06;3.97;;;3.10;;
34212;SDS011;20477;51.390;8.102;2023-09-12T12:49:36;4.97;;;3.08;;
34212;SDS011;20477;51.390;8.102;2023-09-12T12:52:04;7.15;;;2.70;;
34212;SDS011;20477;51.390;8.102;2023-09-12T12:54:31;4.13;;;2.80;;
34212;SDS011;20477;51.390;8.102;2023-09-12T12:56:59;4.07;;;2.70;;
34212;SDS011;20477;51.390;8.102;2023-09-12T12:59:28;3.90;;;2.42;;
34212;SDS011;20477;51.390;8.102;2023-09-12T13:01:55;6.18;;;3.15;;
34212;SDS011;20477;51.390;8.102;2023-09-12T13:04:24;5.25;;;3.03;;
34212;SDS011;20477;51.390;8.102;2023-09-12T13:06:51;5.13;;;2.67;;
34212;SDS011;20477;51.390;8.102;2023-09-12T13:09:18;7.70;;;2.78;;
34212;SDS011;20477;51.390;8.102;2023-09-12T13:11:46;10.23;;;3.00;;
34212;SDS011;20477;51.390;8.102;2023-09-12T13:14:13;5.25;;;2.70;;
34212;SDS011;20477;51.390;8.102;2023-09-12T13:16:41;5.18;;;2.90;;
34212;SDS011;20477;51.390;8.102;2023-09-12T13:19:09;3.53;;;2.78;;
34212;SDS011;20477;51.390;8.102;2023-09-12T13:21:36;4.32;;;2.65;;
34212;SDS011;20477;51.390;8.102;2023-09-12T13:24:03;3.28;;;2.97;;
34212;SDS011;20477;51.390;8.102;2023-09-12T13:26:31;9.40;;;3.78;;
34212;SDS011;20477;51.390;8.102;2023-09-12T13:28:58;4.35;;;2.13;;
34212;SDS011;20477;51.390;8.102;2023-09-12T13:31:25;4.13;;;2.50;;
34212;SDS011;20477;51.390;8.102;2023-09-12T13:33:54;9.05;;;2.67;;
34212;SDS011;20477;51.390;8.102;2023-09-12T13:36:21;2.60;;;2.40;;
34212;SDS011;20477;51.390;8.102;2023-09-12T13:38:49;6.93;;;2.95;;
34212;SDS011;20477;51.390;8.102;2023-09-12T13:41:16;7.05;;;2.72;;
34212;SDS011;20477;51.390;8.102;2023-09-12T13:43:43;7.18;;;3.13;;
34212;SDS011;20477;51.390;8.102;2023-09-12T13:46:11;7.03;;;3.03;;
34212;SDS011;20477;51.390;8.102;2023-09-12T13:48:38;3.17;;;2.88;;
34212;SDS011;20477;51.390;8.102;2023-09-12T13:51:07;5.90;;;2.75;;
34212;SDS011;20477;51.390;8.102;2023-09-12T13:53:34;5.47;;;2.67;;
34212;SDS011;20477;51.390;8.102;2023-09-12T13:56:01;4.13;;;2.75;;
34212;SDS011;20477;51.390;8.102;2023-09-12T13:58:48;10.27;;;2.92;;
34212;SDS011;20477;51.390;8.102;2023-09-12T14:01:16;3.08;;;2.53;;
34212;SDS011;20477;51.390;8.102;2023-09-12T14:03:58;2.83;;;2.58;;
34212;SDS011;20477;51.390;8.102;2023-09-12T14:06:27;7.15;;;2.65;;
34212;SDS011;20477;51.390;8.102;2023-09-12T14:08:55;3.38;;;2.60;;
34212;SDS011;20477;51.390;8.102;2023-09-12T14:11:22;4.55;;;2.60;;
34212;SDS011;20477;51.390;8.102;2023-09-12T14:14:00;5.15;;;3.28;;
34212;SDS011;20477;51.390;8.102;2023-09-12T14:16:40;3.55;;;2.63;;
34212;SDS011;20477;51.390;8.102;2023-09-12T14:19:11;4.40;;;3.00;;
34212;SDS011;20477;51.390;8.102;2023-09-12T14:21:39;3.92;;;2.38;;
34212;SDS011;20477;51.390;8.102;2023-09-12T14:24:07;4.55;;;3.35;;
34212;SDS011;20477;51.390;8.102;2023-09-12T14:26:36;9.38;;;3.78;;
34212;SDS011;20477;51.390;8.102;2023-09-12T14:29:04;6.13;;;2.97;;
34212;SDS011;20477;51.390;8.102;2023-09-12T14:31:31;6.40;;;3.47;;
34212;SDS011;20477;51.390;8.102;2023-09-12T14:33:59;7.68;;;3.28;;
34212;SDS011;20477;51.390;8.102;2023-09-12T14:36:26;4.72;;;2.72;;
34212;SDS011;20477;51.390;8.102;2023-09-12T14:38:54;6.97;;;3.42;;
34212;SDS011;20477;51.390;8.102;2023-09-12T14:41:22;5.68;;;3.55;;
34212;SDS011;20477;51.390;8.102;2023-09-12T14:43:49;4.63;;;3.38;;
34212;SDS011;20477;51.390;8.102;2023-09-12T14:46:16;11.40;;;3.28;;
34212;SDS011;20477;51.390;8.102;2023-09-12T14:48:43;5.90;;;3.28;;